Aeroporto :
LOGIN :

Iscrizione | Disclaimer

   EN    FR    IT 

 










Sommario :    VFR   VFR Marginale   IFR   IFR Intensivo   IFR Molto Intensivo
Visibilità : 
Base nubi : 
>= 8 km
>= 3000ft
5 / 8 km
1000 / 3000 ft
1500m / 5 km
500 / 1000 ft
800 / 1500m
200 / 500 ft
< 800m
< 200 ft
Simboli :   Temporali  Nebbia  Neve Forte  Precipitazioni Forti  Vento > 20 kt
SIGMETs :   Varie  Temporali  Ghiacco  Turbolenza  Onda orograficha  Ceneri Vulcaniche






- Altitudine del aeroporto : 1339 ft


ETHN - Niederstetten

ULTIMO METAR :
  • 121320Z 20010KT 9999 FEW027 SCT040 06/M00 Q1005 BLU+BLU+

METARs OBSOLETI :
  • 121220Z 22009KT 9999 SCT027 SCT260 07/01 Q1005 BLU+BLU+
  • 121120Z 21008KT 9999 FEW029 SCT270 07/01 Q1005 BLU+BLU+

TAF TAF ETHN
Valido dal 12 a 12 ore il 12 a 21 ore UTC


121100Z 1212/1221 21010G20KT 9999 NSW SCT040



MetMap, La meteo Aeronautica in un colpo d'occhio ! - Copyright ORBIFLY Dicembre 2007 - Disclaimer

ORBIFLY MET'MAP TEAM :

Programmazione e sviluppo : Alexandra Zaïnal
Concezione e sviluppo : Baudouin d'Aumeries
Co-Programmazione e sviluppo : Marc-Olivier Méhu
Supporto tecnico e logistico : Manuel Goepfert
Aiuto per la traduzione : Arnaldo La Scala

Contatto : metmap@orbifly.com




FONTI E CREDITI :

   NOAA